sensor_id;sensor_type;location;lat;lon;timestamp;temperature;humidity
33827;DHT22;20128;45.582;5.298;2023-08-17T00:01:24;28.40;46.00
33827;DHT22;20128;45.582;5.298;2023-08-17T00:03:50;28.40;46.00
33827;DHT22;20128;45.582;5.298;2023-08-17T00:06:15;28.40;46.30
33827;DHT22;20128;45.582;5.298;2023-08-17T00:08:42;28.40;46.20
33827;DHT22;20128;45.582;5.298;2023-08-17T00:11:08;28.40;46.00
33827;DHT22;20128;45.582;5.298;2023-08-17T00:13:34;28.30;46.10
33827;DHT22;20128;45.582;5.298;2023-08-17T00:16:00;28.30;46.40
33827;DHT22;20128;45.582;5.298;2023-08-17T00:18:25;28.30;46.40
33827;DHT22;20128;45.582;5.298;2023-08-17T00:20:51;28.30;46.50
33827;DHT22;20128;45.582;5.298;2023-08-17T00:23:17;28.30;46.50
33827;DHT22;20128;45.582;5.298;2023-08-17T00:25:43;28.30;46.50
33827;DHT22;20128;45.582;5.298;2023-08-17T00:28:08;28.30;46.60
33827;DHT22;20128;45.582;5.298;2023-08-17T00:30:34;28.40;46.60
33827;DHT22;20128;45.582;5.298;2023-08-17T00:33:02;28.40;46.40
33827;DHT22;20128;45.582;5.298;2023-08-17T00:35:28;28.40;46.60
33827;DHT22;20128;45.582;5.298;2023-08-17T00:37:53;28.30;46.60
33827;DHT22;20128;45.582;5.298;2023-08-17T00:40:19;28.30;46.50
33827;DHT22;20128;45.582;5.298;2023-08-17T00:42:45;28.30;46.60
33827;DHT22;20128;45.582;5.298;2023-08-17T00:45:11;28.30;46.70
33827;DHT22;20128;45.582;5.298;2023-08-17T00:47:37;28.20;46.80
33827;DHT22;20128;45.582;5.298;2023-08-17T00:50:03;28.20;46.90
33827;DHT22;20128;45.582;5.298;2023-08-17T00:52:30;28.20;47.00
33827;DHT22;20128;45.582;5.298;2023-08-17T00:54:57;28.20;47.10
33827;DHT22;20128;45.582;5.298;2023-08-17T00:57:23;28.20;47.10
33827;DHT22;20128;45.582;5.298;2023-08-17T00:59:50;28.30;47.10
33827;DHT22;20128;45.582;5.298;2023-08-17T01:02:17;28.30;47.10
33827;DHT22;20128;45.582;5.298;2023-08-17T01:04:43;28.30;47.00
33827;DHT22;20128;45.582;5.298;2023-08-17T01:07:09;28.30;47.10
33827;DHT22;20128;45.582;5.298;2023-08-17T01:09:35;28.30;47.20
33827;DHT22;20128;45.582;5.298;2023-08-17T01:12:24;28.30;47.20
33827;DHT22;20128;45.582;5.298;2023-08-17T01:15:31;28.30;47.00
33827;DHT22;20128;45.582;5.298;2023-08-17T01:18:08;28.30;47.10
33827;DHT22;20128;45.582;5.298;2023-08-17T01:20:36;28.20;47.30
33827;DHT22;20128;45.582;5.298;2023-08-17T01:23:06;28.10;47.20
33827;DHT22;20128;45.582;5.298;2023-08-17T01:25:32;28.00;47.20
33827;DHT22;20128;45.582;5.298;2023-08-17T01:28:03;28.00;47.30
33827;DHT22;20128;45.582;5.298;2023-08-17T01:30:30;28.00;47.40
33827;DHT22;20128;45.582;5.298;2023-08-17T01:33:08;28.00;47.50
33827;DHT22;20128;45.582;5.298;2023-08-17T01:35:48;27.90;47.40
33827;DHT22;20128;45.582;5.298;2023-08-17T01:38:18;27.90;47.10
33827;DHT22;20128;45.582;5.298;2023-08-17T01:40:46;27.90;47.30
33827;DHT22;20128;45.582;5.298;2023-08-17T01:43:13;27.90;47.40
33827;DHT22;20128;45.582;5.298;2023-08-17T01:45:40;27.90;47.40
33827;DHT22;20128;45.582;5.298;2023-08-17T01:48:05;27.90;47.60
33827;DHT22;20128;45.582;5.298;2023-08-17T01:50:31;27.90;47.90
33827;DHT22;20128;45.582;5.298;2023-08-17T01:52:57;27.90;48.70
33827;DHT22;20128;45.582;5.298;2023-08-17T01:55:22;27.90;49.00
33827;DHT22;20128;45.582;5.298;2023-08-17T01:57:49;27.80;49.30
33827;DHT22;20128;45.582;5.298;2023-08-17T02:00:15;27.80;49.90
33827;DHT22;20128;45.582;5.298;2023-08-17T02:02:40;27.60;50.60
33827;DHT22;20128;45.582;5.298;2023-08-17T02:05:07;27.50;50.70
33827;DHT22;20128;45.582;5.298;2023-08-17T02:07:33;27.50;50.70
33827;DHT22;20128;45.582;5.298;2023-08-17T02:09:58;27.60;51.10
33827;DHT22;20128;45.582;5.298;2023-08-17T02:12:24;27.60;52.30
33827;DHT22;20128;45.582;5.298;2023-08-17T02:14:50;27.60;52.30
33827;DHT22;20128;45.582;5.298;2023-08-17T02:17:15;27.60;51.90
33827;DHT22;20128;45.582;5.298;2023-08-17T02:19:45;27.60;51.90
33827;DHT22;20128;45.582;5.298;2023-08-17T02:22:12;27.60;52.30
33827;DHT22;20128;45.582;5.298;2023-08-17T02:24:38;27.60;52.80
33827;DHT22;20128;45.582;5.298;2023-08-17T02:27:03;27.60;52.80
33827;DHT22;20128;45.582;5.298;2023-08-17T02:29:30;27.60;52.80
33827;DHT22;20128;45.582;5.298;2023-08-17T02:31:55;27.60;53.20
33827;DHT22;20128;45.582;5.298;2023-08-17T02:34:21;27.60;53.40
33827;DHT22;20128;45.582;5.298;2023-08-17T02:36:46;27.60;53.60
33827;DHT22;20128;45.582;5.298;2023-08-17T02:39:12;27.60;53.90
33827;DHT22;20128;45.582;5.298;2023-08-17T02:41:38;27.60;54.00
33827;DHT22;20128;45.582;5.298;2023-08-17T02:44:04;27.60;54.00
33827;DHT22;20128;45.582;5.298;2023-08-17T02:46:30;27.50;53.80
33827;DHT22;20128;45.582;5.298;2023-08-17T02:48:56;27.50;54.00
33827;DHT22;20128;45.582;5.298;2023-08-17T02:51:21;27.40;54.00
33827;DHT22;20128;45.582;5.298;2023-08-17T02:53:47;27.40;53.90
33827;DHT22;20128;45.582;5.298;2023-08-17T02:56:12;27.40;54.00
33827;DHT22;20128;45.582;5.298;2023-08-17T02:58:39;27.40;54.00
33827;DHT22;20128;45.582;5.298;2023-08-17T03:01:08;27.40;53.80
33827;DHT22;20128;45.582;5.298;2023-08-17T03:03:34;27.30;53.40
33827;DHT22;20128;45.582;5.298;2023-08-17T03:06:01;27.20;53.20
33827;DHT22;20128;45.582;5.298;2023-08-17T03:08:27;27.10;52.80
33827;DHT22;20128;45.582;5.298;2023-08-17T03:10:52;27.00;53.20
33827;DHT22;20128;45.582;5.298;2023-08-17T03:13:18;26.90;53.40
33827;DHT22;20128;45.582;5.298;2023-08-17T03:15:44;26.90;53.30
33827;DHT22;20128;45.582;5.298;2023-08-17T03:18:09;26.70;52.90
33827;DHT22;20128;45.582;5.298;2023-08-17T03:20:35;26.60;53.40
33827;DHT22;20128;45.582;5.298;2023-08-17T03:23:00;26.60;53.70
33827;DHT22;20128;45.582;5.298;2023-08-17T03:25:26;26.50;54.30
33827;DHT22;20128;45.582;5.298;2023-08-17T03:27:52;26.40;55.00
33827;DHT22;20128;45.582;5.298;2023-08-17T03:30:18;26.40;55.80
33827;DHT22;20128;45.582;5.298;2023-08-17T03:32:43;26.40;56.00
33827;DHT22;20128;45.582;5.298;2023-08-17T03:35:09;26.40;56.10
33827;DHT22;20128;45.582;5.298;2023-08-17T03:37:35;26.40;56.40
33827;DHT22;20128;45.582;5.298;2023-08-17T03:40:00;26.30;57.30
33827;DHT22;20128;45.582;5.298;2023-08-17T03:42:27;26.20;57.60
33827;DHT22;20128;45.582;5.298;2023-08-17T03:44:53;26.10;57.60
33827;DHT22;20128;45.582;5.298;2023-08-17T03:47:19;26.10;57.70
33827;DHT22;20128;45.582;5.298;2023-08-17T03:49:44;25.90;56.50
33827;DHT22;20128;45.582;5.298;2023-08-17T03:52:11;25.90;56.30
33827;DHT22;20128;45.582;5.298;2023-08-17T03:54:37;26.00;56.30
33827;DHT22;20128;45.582;5.298;2023-08-17T03:57:03;26.20;56.30
33827;DHT22;20128;45.582;5.298;2023-08-17T03:59:28;26.30;56.10
33827;DHT22;20128;45.582;5.298;2023-08-17T04:01:54;26.40;55.70
33827;DHT22;20128;45.582;5.298;2023-08-17T04:04:20;26.50;55.70
33827;DHT22;20128;45.582;5.298;2023-08-17T04:06:45;26.50;55.50
33827;DHT22;20128;45.582;5.298;2023-08-17T04:09:11;26.60;55.60
33827;DHT22;20128;45.582;5.298;2023-08-17T04:11:37;26.60;55.70
33827;DHT22;20128;45.582;5.298;2023-08-17T04:14:03;26.60;55.70
33827;DHT22;20128;45.582;5.298;2023-08-17T04:16:29;26.70;55.70
33827;DHT22;20128;45.582;5.298;2023-08-17T04:18:55;26.70;55.80
33827;DHT22;20128;45.582;5.298;2023-08-17T04:21:20;26.60;55.60
33827;DHT22;20128;45.582;5.298;2023-08-17T04:23:46;26.60;55.50
33827;DHT22;20128;45.582;5.298;2023-08-17T04:26:12;26.60;55.20
33827;DHT22;20128;45.582;5.298;2023-08-17T04:28:38;26.50;55.50
33827;DHT22;20128;45.582;5.298;2023-08-17T04:31:04;26.40;55.60
33827;DHT22;20128;45.582;5.298;2023-08-17T04:33:30;26.40;55.70
33827;DHT22;20128;45.582;5.298;2023-08-17T04:35:55;26.50;55.90
33827;DHT22;20128;45.582;5.298;2023-08-17T04:38:21;26.50;55.90
33827;DHT22;20128;45.582;5.298;2023-08-17T04:40:47;26.60;55.90
33827;DHT22;20128;45.582;5.298;2023-08-17T04:43:12;26.60;55.90
33827;DHT22;20128;45.582;5.298;2023-08-17T04:45:38;26.60;55.80
33827;DHT22;20128;45.582;5.298;2023-08-17T04:48:05;26.60;55.70
33827;DHT22;20128;45.582;5.298;2023-08-17T04:50:31;26.60;55.80
33827;DHT22;20128;45.582;5.298;2023-08-17T04:52:56;26.50;55.90
33827;DHT22;20128;45.582;5.298;2023-08-17T04:55:22;26.40;56.10
33827;DHT22;20128;45.582;5.298;2023-08-17T04:57:48;26.30;56.20
33827;DHT22;20128;45.582;5.298;2023-08-17T05:00:15;26.30;56.30
33827;DHT22;20128;45.582;5.298;2023-08-17T05:02:41;26.30;56.40
33827;DHT22;20128;45.582;5.298;2023-08-17T05:05:09;26.30;56.40
33827;DHT22;20128;45.582;5.298;2023-08-17T05:07:35;26.20;56.50
33827;DHT22;20128;45.582;5.298;2023-08-17T05:10:01;26.10;56.50
33827;DHT22;20128;45.582;5.298;2023-08-17T05:12:27;26.00;56.80
33827;DHT22;20128;45.582;5.298;2023-08-17T05:14:52;25.90;57.10
33827;DHT22;20128;45.582;5.298;2023-08-17T05:17:18;25.90;57.50
33827;DHT22;20128;45.582;5.298;2023-08-17T05:19:44;25.70;57.70
33827;DHT22;20128;45.582;5.298;2023-08-17T05:22:11;25.30;57.90
33827;DHT22;20128;45.582;5.298;2023-08-17T05:24:37;24.90;58.10
33827;DHT22;20128;45.582;5.298;2023-08-17T05:27:02;24.90;58.40
33827;DHT22;20128;45.582;5.298;2023-08-17T05:29:28;24.90;58.70
33827;DHT22;20128;45.582;5.298;2023-08-17T05:31:54;25.00;59.20
33827;DHT22;20128;45.582;5.298;2023-08-17T05:34:19;24.90;59.50
33827;DHT22;20128;45.582;5.298;2023-08-17T05:36:45;24.80;59.30
33827;DHT22;20128;45.582;5.298;2023-08-17T05:39:10;24.60;59.40
33827;DHT22;20128;45.582;5.298;2023-08-17T05:41:36;24.30;59.80
33827;DHT22;20128;45.582;5.298;2023-08-17T05:44:02;24.10;60.70
33827;DHT22;20128;45.582;5.298;2023-08-17T05:46:27;24.00;60.60
33827;DHT22;20128;45.582;5.298;2023-08-17T05:48:53;24.00;60.60
33827;DHT22;20128;45.582;5.298;2023-08-17T05:51:19;24.10;60.70
33827;DHT22;20128;45.582;5.298;2023-08-17T05:53:45;24.10;60.30
33827;DHT22;20128;45.582;5.298;2023-08-17T05:56:11;24.10;60.10
33827;DHT22;20128;45.582;5.298;2023-08-17T05:58:36;24.20;59.60
33827;DHT22;20128;45.582;5.298;2023-08-17T06:01:06;24.20;58.80
33827;DHT22;20128;45.582;5.298;2023-08-17T06:03:33;24.30;58.50
33827;DHT22;20128;45.582;5.298;2023-08-17T06:05:59;24.40;58.50
33827;DHT22;20128;45.582;5.298;2023-08-17T06:08:25;24.40;58.60
33827;DHT22;20128;45.582;5.298;2023-08-17T06:10:50;24.50;58.60
33827;DHT22;20128;45.582;5.298;2023-08-17T06:13:16;24.80;58.60
33827;DHT22;20128;45.582;5.298;2023-08-17T06:15:42;24.90;58.40
33827;DHT22;20128;45.582;5.298;2023-08-17T06:18:07;25.10;58.40
33827;DHT22;20128;45.582;5.298;2023-08-17T06:20:33;25.10;58.40
33827;DHT22;20128;45.582;5.298;2023-08-17T06:22:59;25.20;58.40
33827;DHT22;20128;45.582;5.298;2023-08-17T06:25:24;25.30;58.40
33827;DHT22;20128;45.582;5.298;2023-08-17T06:27:51;25.30;58.30
33827;DHT22;20128;45.582;5.298;2023-08-17T06:30:17;25.10;58.70
33827;DHT22;20128;45.582;5.298;2023-08-17T06:32:43;24.80;59.10
33827;DHT22;20128;45.582;5.298;2023-08-17T06:35:09;24.80;59.00
33827;DHT22;20128;45.582;5.298;2023-08-17T06:37:35;24.90;57.40
33827;DHT22;20128;45.582;5.298;2023-08-17T06:40:02;24.90;57.00
33827;DHT22;20128;45.582;5.298;2023-08-17T06:42:28;25.00;57.00
33827;DHT22;20128;45.582;5.298;2023-08-17T06:44:53;25.10;57.30
33827;DHT22;20128;45.582;5.298;2023-08-17T06:47:19;25.10;57.90
33827;DHT22;20128;45.582;5.298;2023-08-17T06:49:45;25.20;58.10
33827;DHT22;20128;45.582;5.298;2023-08-17T06:52:10;25.20;58.40
33827;DHT22;20128;45.582;5.298;2023-08-17T06:54:36;25.30;58.60
33827;DHT22;20128;45.582;5.298;2023-08-17T06:57:01;25.30;59.00
33827;DHT22;20128;45.582;5.298;2023-08-17T06:59:27;25.20;58.80
33827;DHT22;20128;45.582;5.298;2023-08-17T07:01:53;25.20;59.50
33827;DHT22;20128;45.582;5.298;2023-08-17T07:04:18;25.10;59.30
33827;DHT22;20128;45.582;5.298;2023-08-17T07:06:44;25.10;59.30
33827;DHT22;20128;45.582;5.298;2023-08-17T07:09:10;25.20;59.30
33827;DHT22;20128;45.582;5.298;2023-08-17T07:11:38;25.30;59.20
33827;DHT22;20128;45.582;5.298;2023-08-17T07:14:04;25.40;58.90
33827;DHT22;20128;45.582;5.298;2023-08-17T07:16:32;25.30;58.40
33827;DHT22;20128;45.582;5.298;2023-08-17T07:18:57;25.30;58.50
33827;DHT22;20128;45.582;5.298;2023-08-17T07:21:23;25.30;58.20
33827;DHT22;20128;45.582;5.298;2023-08-17T07:23:50;25.30;57.70
33827;DHT22;20128;45.582;5.298;2023-08-17T07:26:16;25.50;57.60
33827;DHT22;20128;45.582;5.298;2023-08-17T07:28:44;25.60;57.00
33827;DHT22;20128;45.582;5.298;2023-08-17T07:31:10;25.60;56.60
33827;DHT22;20128;45.582;5.298;2023-08-17T07:33:36;25.70;56.70
33827;DHT22;20128;45.582;5.298;2023-08-17T07:36:02;25.80;56.70
33827;DHT22;20128;45.582;5.298;2023-08-17T07:38:27;25.80;56.60
33827;DHT22;20128;45.582;5.298;2023-08-17T07:40:54;25.80;56.60
33827;DHT22;20128;45.582;5.298;2023-08-17T07:43:20;25.80;56.50
33827;DHT22;20128;45.582;5.298;2023-08-17T07:45:45;25.90;56.70
33827;DHT22;20128;45.582;5.298;2023-08-17T07:48:11;25.90;56.80
33827;DHT22;20128;45.582;5.298;2023-08-17T07:50:37;26.00;56.60
33827;DHT22;20128;45.582;5.298;2023-08-17T07:53:03;26.00;56.50
33827;DHT22;20128;45.582;5.298;2023-08-17T07:55:28;26.20;56.20
33827;DHT22;20128;45.582;5.298;2023-08-17T07:57:54;26.30;55.80
33827;DHT22;20128;45.582;5.298;2023-08-17T08:00:20;26.40;55.30
33827;DHT22;20128;45.582;5.298;2023-08-17T08:02:46;26.50;55.00
33827;DHT22;20128;45.582;5.298;2023-08-17T08:05:12;26.70;54.70
33827;DHT22;20128;45.582;5.298;2023-08-17T08:07:39;26.70;54.30
33827;DHT22;20128;45.582;5.298;2023-08-17T08:10:05;26.80;53.60
33827;DHT22;20128;45.582;5.298;2023-08-17T08:12:31;26.90;53.80
33827;DHT22;20128;45.582;5.298;2023-08-17T08:14:56;26.90;53.80
33827;DHT22;20128;45.582;5.298;2023-08-17T08:17:22;27.00;53.80
33827;DHT22;20128;45.582;5.298;2023-08-17T08:19:47;27.20;53.20
33827;DHT22;20128;45.582;5.298;2023-08-17T08:22:13;27.20;53.10
33827;DHT22;20128;45.582;5.298;2023-08-17T08:24:39;27.30;52.60
33827;DHT22;20128;45.582;5.298;2023-08-17T08:27:06;27.40;51.90
33827;DHT22;20128;45.582;5.298;2023-08-17T08:29:32;27.50;52.00
33827;DHT22;20128;45.582;5.298;2023-08-17T08:31:58;27.60;51.80
33827;DHT22;20128;45.582;5.298;2023-08-17T08:34:25;27.80;51.80
33827;DHT22;20128;45.582;5.298;2023-08-17T08:36:50;27.90;51.60
33827;DHT22;20128;45.582;5.298;2023-08-17T08:39:16;28.00;51.40
33827;DHT22;20128;45.582;5.298;2023-08-17T08:41:42;28.10;51.20
33827;DHT22;20128;45.582;5.298;2023-08-17T08:44:07;28.20;51.20
33827;DHT22;20128;45.582;5.298;2023-08-17T08:46:34;28.30;50.90
33827;DHT22;20128;45.582;5.298;2023-08-17T08:49:03;28.40;50.50
33827;DHT22;20128;45.582;5.298;2023-08-17T08:51:32;28.50;50.20
33827;DHT22;20128;45.582;5.298;2023-08-17T08:54:02;28.50;50.40
33827;DHT22;20128;45.582;5.298;2023-08-17T08:56:35;28.60;50.00
33827;DHT22;20128;45.582;5.298;2023-08-17T08:59:04;28.70;49.50
33827;DHT22;20128;45.582;5.298;2023-08-17T09:01:33;28.80;49.40
33827;DHT22;20128;45.582;5.298;2023-08-17T09:03:59;28.90;48.50
33827;DHT22;20128;45.582;5.298;2023-08-17T09:06:26;29.10;48.40
33827;DHT22;20128;45.582;5.298;2023-08-17T09:08:53;29.20;48.40
33827;DHT22;20128;45.582;5.298;2023-08-17T09:11:19;29.40;48.60
33827;DHT22;20128;45.582;5.298;2023-08-17T09:13:44;29.50;47.60
33827;DHT22;20128;45.582;5.298;2023-08-17T09:16:10;29.70;47.30
33827;DHT22;20128;45.582;5.298;2023-08-17T09:18:35;29.80;47.20
33827;DHT22;20128;45.582;5.298;2023-08-17T09:21:01;29.90;47.10
33827;DHT22;20128;45.582;5.298;2023-08-17T09:23:27;30.00;46.80
33827;DHT22;20128;45.582;5.298;2023-08-17T09:25:53;30.10;46.10
33827;DHT22;20128;45.582;5.298;2023-08-17T09:28:24;30.20;45.60
33827;DHT22;20128;45.582;5.298;2023-08-17T09:30:54;30.30;45.80
33827;DHT22;20128;45.582;5.298;2023-08-17T09:33:23;30.40;45.20
33827;DHT22;20128;45.582;5.298;2023-08-17T09:35:50;30.60;44.70
33827;DHT22;20128;45.582;5.298;2023-08-17T09:38:16;30.70;44.20
33827;DHT22;20128;45.582;5.298;2023-08-17T09:40:43;30.80;43.50
33827;DHT22;20128;45.582;5.298;2023-08-17T09:43:09;30.90;42.80
33827;DHT22;20128;45.582;5.298;2023-08-17T09:45:37;31.00;43.00
33827;DHT22;20128;45.582;5.298;2023-08-17T09:48:04;31.10;42.30
33827;DHT22;20128;45.582;5.298;2023-08-17T09:50:29;31.20;41.30
33827;DHT22;20128;45.582;5.298;2023-08-17T09:52:55;31.30;41.40
33827;DHT22;20128;45.582;5.298;2023-08-17T09:55:24;31.40;40.30
33827;DHT22;20128;45.582;5.298;2023-08-17T09:57:50;31.60;40.90
33827;DHT22;20128;45.582;5.298;2023-08-17T10:00:18;31.70;40.80
33827;DHT22;20128;45.582;5.298;2023-08-17T10:02:44;31.80;40.40
33827;DHT22;20128;45.582;5.298;2023-08-17T10:05:12;31.90;40.00
33827;DHT22;20128;45.582;5.298;2023-08-17T10:07:42;32.10;39.60
33827;DHT22;20128;45.582;5.298;2023-08-17T10:10:09;32.20;39.70
33827;DHT22;20128;45.582;5.298;2023-08-17T10:12:51;32.30;39.10
33827;DHT22;20128;45.582;5.298;2023-08-17T10:15:19;32.40;38.80
33827;DHT22;20128;45.582;5.298;2023-08-17T10:18:13;32.50;38.80
33827;DHT22;20128;45.582;5.298;2023-08-17T10:20:43;32.70;38.50
33827;DHT22;20128;45.582;5.298;2023-08-17T10:23:22;32.80;38.60
33827;DHT22;20128;45.582;5.298;2023-08-17T10:25:49;32.90;39.00
33827;DHT22;20128;45.582;5.298;2023-08-17T10:28:16;32.90;38.40
33827;DHT22;20128;45.582;5.298;2023-08-17T10:30:43;32.90;38.30
33827;DHT22;20128;45.582;5.298;2023-08-17T10:33:09;33.00;38.30
33827;DHT22;20128;45.582;5.298;2023-08-17T10:35:35;33.10;38.30
33827;DHT22;20128;45.582;5.298;2023-08-17T10:38:03;33.10;38.20
33827;DHT22;20128;45.582;5.298;2023-08-17T10:40:35;33.20;38.60
33827;DHT22;20128;45.582;5.298;2023-08-17T10:43:01;33.30;38.20
33827;DHT22;20128;45.582;5.298;2023-08-17T10:45:36;33.40;37.80
33827;DHT22;20128;45.582;5.298;2023-08-17T10:50:33;33.70;37.60
33827;DHT22;20128;45.582;5.298;2023-08-17T10:53:05;33.70;37.50
33827;DHT22;20128;45.582;5.298;2023-08-17T10:55:38;33.80;37.70
33827;DHT22;20128;45.582;5.298;2023-08-17T10:58:05;33.80;37.40
33827;DHT22;20128;45.582;5.298;2023-08-17T11:00:40;33.90;37.60
33827;DHT22;20128;45.582;5.298;2023-08-17T11:03:09;33.90;37.30
33827;DHT22;20128;45.582;5.298;2023-08-17T11:05:41;34.10;37.40
33827;DHT22;20128;45.582;5.298;2023-08-17T11:13:39;34.40;35.60
33827;DHT22;20128;45.582;5.298;2023-08-17T11:16:06;34.50;35.40
33827;DHT22;20128;45.582;5.298;2023-08-17T11:18:33;34.50;35.60
33827;DHT22;20128;45.582;5.298;2023-08-17T11:21:00;34.70;35.70
33827;DHT22;20128;45.582;5.298;2023-08-17T11:23:29;34.80;35.30
33827;DHT22;20128;45.582;5.298;2023-08-17T11:25:55;34.90;35.00
33827;DHT22;20128;45.582;5.298;2023-08-17T11:28:21;35.00;34.90
33827;DHT22;20128;45.582;5.298;2023-08-17T11:31:00;35.10;35.20
33827;DHT22;20128;45.582;5.298;2023-08-17T11:33:27;35.20;35.00
33827;DHT22;20128;45.582;5.298;2023-08-17T11:36:00;35.30;34.60
33827;DHT22;20128;45.582;5.298;2023-08-17T11:38:30;35.20;33.00
33827;DHT22;20128;45.582;5.298;2023-08-17T11:40:58;35.30;32.00
33827;DHT22;20128;45.582;5.298;2023-08-17T11:43:23;35.20;31.50
33827;DHT22;20128;45.582;5.298;2023-08-17T11:45:51;35.00;30.80
33827;DHT22;20128;45.582;5.298;2023-08-17T11:48:19;35.00;30.90
33827;DHT22;20128;45.582;5.298;2023-08-17T11:50:44;35.10;30.40
33827;DHT22;20128;45.582;5.298;2023-08-17T11:53:10;35.10;30.30
33827;DHT22;20128;45.582;5.298;2023-08-17T11:55:36;35.00;30.20
33827;DHT22;20128;45.582;5.298;2023-08-17T11:58:03;35.00;30.60
33827;DHT22;20128;45.582;5.298;2023-08-17T12:00:41;34.80;31.20
33827;DHT22;20128;45.582;5.298;2023-08-17T12:03:07;34.60;31.40
33827;DHT22;20128;45.582;5.298;2023-08-17T12:05:33;34.40;31.50
33827;DHT22;20128;45.582;5.298;2023-08-17T12:08:02;34.30;31.60
33827;DHT22;20128;45.582;5.298;2023-08-17T12:10:34;34.30;32.00
33827;DHT22;20128;45.582;5.298;2023-08-17T12:13:00;34.20;32.40
33827;DHT22;20128;45.582;5.298;2023-08-17T12:15:33;34.20;32.50
33827;DHT22;20128;45.582;5.298;2023-08-17T12:18:01;34.20;32.90
33827;DHT22;20128;45.582;5.298;2023-08-17T12:20:27;34.30;32.90
33827;DHT22;20128;45.582;5.298;2023-08-17T12:22:53;34.30;32.50
33827;DHT22;20128;45.582;5.298;2023-08-17T12:25:21;34.30;31.90
33827;DHT22;20128;45.582;5.298;2023-08-17T12:27:48;34.30;32.00
33827;DHT22;20128;45.582;5.298;2023-08-17T12:32:52;34.30;32.50
33827;DHT22;20128;45.582;5.298;2023-08-17T12:35:17;34.30;32.80
33827;DHT22;20128;45.582;5.298;2023-08-17T12:37:44;34.30;32.70
33827;DHT22;20128;45.582;5.298;2023-08-17T12:40:10;34.30;32.30
33827;DHT22;20128;45.582;5.298;2023-08-17T12:42:36;34.20;32.50
33827;DHT22;20128;45.582;5.298;2023-08-17T12:45:02;34.20;32.80
33827;DHT22;20128;45.582;5.298;2023-08-17T12:47:27;34.10;32.60
33827;DHT22;20128;45.582;5.298;2023-08-17T12:49:53;34.10;32.30
33827;DHT22;20128;45.582;5.298;2023-08-17T12:52:18;34.20;31.60
33827;DHT22;20128;45.582;5.298;2023-08-17T12:54:44;34.30;31.50
33827;DHT22;20128;45.582;5.298;2023-08-17T12:57:10;34.30;31.10
33827;DHT22;20128;45.582;5.298;2023-08-17T12:59:35;34.50;30.50
33827;DHT22;20128;45.582;5.298;2023-08-17T13:02:01;34.50;30.20
33827;DHT22;20128;45.582;5.298;2023-08-17T13:04:26;34.50;30.50
33827;DHT22;20128;45.582;5.298;2023-08-17T13:06:52;34.60;30.50
33827;DHT22;20128;45.582;5.298;2023-08-17T13:09:19;34.60;29.90
33827;DHT22;20128;45.582;5.298;2023-08-17T13:11:45;34.60;29.90
33827;DHT22;20128;45.582;5.298;2023-08-17T13:14:12;34.50;30.00
33827;DHT22;20128;45.582;5.298;2023-08-17T13:16:38;34.50;30.40
33827;DHT22;20128;45.582;5.298;2023-08-17T13:19:03;34.50;30.60
33827;DHT22;20128;45.582;5.298;2023-08-17T13:21:29;34.50;30.60
33827;DHT22;20128;45.582;5.298;2023-08-17T13:23:55;34.60;31.10
33827;DHT22;20128;45.582;5.298;2023-08-17T13:26:22;34.70;31.10
33827;DHT22;20128;45.582;5.298;2023-08-17T13:28:47;34.80;30.80
33827;DHT22;20128;45.582;5.298;2023-08-17T13:31:13;34.90;31.00
33827;DHT22;20128;45.582;5.298;2023-08-17T13:33:39;35.00;30.90
33827;DHT22;20128;45.582;5.298;2023-08-17T13:36:05;35.00;31.20
33827;DHT22;20128;45.582;5.298;2023-08-17T13:38:30;35.20;31.30
33827;DHT22;20128;45.582;5.298;2023-08-17T13:40:57;35.30;31.20
33827;DHT22;20128;45.582;5.298;2023-08-17T13:43:22;35.40;30.90
33827;DHT22;20128;45.582;5.298;2023-08-17T13:45:48;35.50;31.00
33827;DHT22;20128;45.582;5.298;2023-08-17T13:48:13;35.60;31.20
33827;DHT22;20128;45.582;5.298;2023-08-17T13:50:39;35.60;31.30
33827;DHT22;20128;45.582;5.298;2023-08-17T13:53:05;35.70;30.80
33827;DHT22;20128;45.582;5.298;2023-08-17T13:55:31;35.70;30.50
33827;DHT22;20128;45.582;5.298;2023-08-17T13:57:57;35.80;30.40
33827;DHT22;20128;45.582;5.298;2023-08-17T14:00:23;35.80;30.60
33827;DHT22;20128;45.582;5.298;2023-08-17T14:02:49;36.00;30.50
33827;DHT22;20128;45.582;5.298;2023-08-17T14:05:15;36.00;30.20
33827;DHT22;20128;45.582;5.298;2023-08-17T14:07:41;36.00;30.40
33827;DHT22;20128;45.582;5.298;2023-08-17T14:10:07;36.10;30.40
33827;DHT22;20128;45.582;5.298;2023-08-17T14:12:32;36.20;30.00
33827;DHT22;20128;45.582;5.298;2023-08-17T14:14:59;36.20;30.20
33827;DHT22;20128;45.582;5.298;2023-08-17T14:17:25;36.30;30.00
33827;DHT22;20128;45.582;5.298;2023-08-17T14:19:50;36.30;30.00
33827;DHT22;20128;45.582;5.298;2023-08-17T14:22:16;36.40;30.00
33827;DHT22;20128;45.582;5.298;2023-08-17T14:24:41;36.60;29.90
33827;DHT22;20128;45.582;5.298;2023-08-17T14:27:07;36.50;29.90
33827;DHT22;20128;45.582;5.298;2023-08-17T14:29:33;36.60;30.00
33827;DHT22;20128;45.582;5.298;2023-08-17T14:31:58;36.60;30.00
33827;DHT22;20128;45.582;5.298;2023-08-17T14:34:24;36.60;30.10
33827;DHT22;20128;45.582;5.298;2023-08-17T14:36:50;36.70;30.30
33827;DHT22;20128;45.582;5.298;2023-08-17T14:39:15;36.70;30.30
33827;DHT22;20128;45.582;5.298;2023-08-17T14:41:41;36.60;29.30
33827;DHT22;20128;45.582;5.298;2023-08-17T14:44:07;36.70;29.70
33827;DHT22;20128;45.582;5.298;2023-08-17T14:46:32;36.70;29.70
33827;DHT22;20128;45.582;5.298;2023-08-17T14:48:58;36.70;29.70
33827;DHT22;20128;45.582;5.298;2023-08-17T14:51:24;36.90;29.20
33827;DHT22;20128;45.582;5.298;2023-08-17T14:53:50;36.90;28.50
33827;DHT22;20128;45.582;5.298;2023-08-17T14:56:16;36.80;28.60
33827;DHT22;20128;45.582;5.298;2023-08-17T14:58:41;36.80;29.00
33827;DHT22;20128;45.582;5.298;2023-08-17T15:01:07;36.70;29.10
33827;DHT22;20128;45.582;5.298;2023-08-17T15:03:33;36.70;29.30
33827;DHT22;20128;45.582;5.298;2023-08-17T15:05:58;36.70;29.40
33827;DHT22;20128;45.582;5.298;2023-08-17T15:08:24;36.70;29.20
33827;DHT22;20128;45.582;5.298;2023-08-17T15:10:50;36.70;28.90
33827;DHT22;20128;45.582;5.298;2023-08-17T15:13:16;36.70;29.00
33827;DHT22;20128;45.582;5.298;2023-08-17T15:15:42;36.70;29.00
33827;DHT22;20128;45.582;5.298;2023-08-17T15:18:09;36.70;28.90
33827;DHT22;20128;45.582;5.298;2023-08-17T15:20:34;36.60;29.00
33827;DHT22;20128;45.582;5.298;2023-08-17T15:23:00;36.60;29.30
33827;DHT22;20128;45.582;5.298;2023-08-17T15:25:26;36.60;29.40
33827;DHT22;20128;45.582;5.298;2023-08-17T15:27:52;36.60;29.30
33827;DHT22;20128;45.582;5.298;2023-08-17T15:30:17;36.50;29.30
33827;DHT22;20128;45.582;5.298;2023-08-17T15:32:43;36.50;29.40
33827;DHT22;20128;45.582;5.298;2023-08-17T15:35:10;36.50;29.50
33827;DHT22;20128;45.582;5.298;2023-08-17T15:37:39;36.40;29.60